Time;durP1;ratioP1;P1;durP2;ratioP2;P2;SDS_P1;SDS_P2;PMS_P1;PMS_P2;Temp;Humidity;BMP_temperature;BMP_pressure;BME280_temperature;BME280_humidity;BME280_pressure;Samples;Min_cycle;Max_cycle;Signal;HPM_P1;HPM_P2
2021/04/10 00:00:43;;;;;;;10.97;4.97;;;;;;;8.24;60.28;96020.22;5059235;28;20216;-70
2021/04/10 00:03:09;;;;;;;12.27;5.77;;;;;;;8.27;60.55;96004.13;5059135;28;20563;-68
2021/04/10 00:05:35;;;;;;;9.63;5.07;;;;;;;8.29;60.77;96008.22;5058334;28;20228;-68
2021/04/10 00:08:01;;;;;;;10.20;5.30;;;;;;;8.13;61.64;95996.91;5059109;28;20207;-69
2021/04/10 00:10:29;;;;;;;11.33;5.20;;;;;;;8.18;61.13;96000.69;5059259;28;20257;-69
2021/04/10 00:12:55;;;;;;;9.60;5.40;;;;;;;8.11;61.87;95996.28;5059130;28;20228;-72
2021/04/10 00:15:22;;;;;;;13.87;5.40;;;;;;;8.01;62.13;96003.53;5056235;28;20221;-68
2021/04/10 00:17:50;;;;;;;11.33;4.87;;;;;;;8.00;62.88;96007.13;5058180;28;20196;-69
2021/04/10 00:20:18;;;;;;;7.50;4.80;;;;;;;7.97;62.95;95996.97;5059138;28;20225;-72
2021/04/10 00:22:45;;;;;;;10.87;5.10;;;;;;;7.86;62.94;95998.09;5059071;28;20220;-72
2021/04/10 00:25:12;;;;;;;12.17;4.77;;;;;;;7.83;63.44;95991.56;5057713;28;20647;-69
2021/04/10 00:27:39;;;;;;;8.83;5.00;;;;;;;7.79;63.28;95995.50;5059441;28;20200;-72
2021/04/10 00:30:07;;;;;;;10.80;4.70;;;;;;;7.70;63.91;95992.09;5058964;28;20215;-71
2021/04/10 00:32:33;;;;;;;11.37;4.50;;;;;;;7.64;65.03;95995.38;5058582;28;20205;-72
2021/04/10 00:34:59;;;;;;;8.73;4.10;;;;;;;7.58;65.29;95988.16;5058266;28;20226;-72
2021/04/10 00:37:26;;;;;;;9.60;4.70;;;;;;;7.61;64.72;96000.09;5058640;28;20208;-72
2021/04/10 00:39:52;;;;;;;9.23;4.17;;;;;;;7.51;65.41;96002.06;5058730;28;20208;-69
2021/04/10 00:42:18;;;;;;;9.47;4.50;;;;;;;7.52;64.75;96001.94;5058535;28;20210;-68
2021/04/10 00:44:44;;;;;;;9.33;4.10;;;;;;;7.61;64.76;95995.72;5058478;28;20627;-72
2021/04/10 00:47:10;;;;;;;11.30;4.40;;;;;;;7.60;64.32;95988.81;5057665;28;20209;-71
2021/04/10 00:49:36;;;;;;;10.07;4.60;;;;;;;7.58;64.24;95985.53;5058710;28;20205;-68
2021/04/10 00:52:06;;;;;;;12.07;4.60;;;;;;;7.70;64.36;95984.22;5058471;28;20230;-71
2021/04/10 00:54:32;;;;;;;7.00;4.10;;;;;;;7.69;64.27;95990.44;5058416;28;20228;-69
2021/04/10 00:56:58;;;;;;;11.23;4.50;;;;;;;7.67;64.38;95989.78;5057509;28;20231;-69
2021/04/10 00:59:24;;;;;;;9.07;4.23;;;;;;;7.64;64.68;95995.38;5058814;28;20216;-69
2021/04/10 01:01:50;;;;;;;12.47;4.37;;;;;;;7.70;65.26;95986.00;5058007;28;20732;-69
2021/04/10 01:04:17;;;;;;;8.53;4.00;;;;;;;7.62;65.72;95986.84;5056417;28;20964;-71
2021/04/10 01:06:43;;;;;;;7.83;4.20;;;;;;;7.58;65.69;95996.00;5056293;28;20220;-69
2021/04/10 01:09:10;;;;;;;7.93;4.23;;;;;;;7.58;66.31;95996.00;5057360;28;20319;-69
2021/04/10 01:11:43;;;;;;;11.23;4.23;;;;;;;7.54;66.45;95993.91;5057205;28;20764;-69
2021/04/10 01:14:17;;;;;;;11.63;4.57;;;;;;;7.54;68.00;95992.09;5055904;28;20228;-70
2021/04/10 01:16:51;;;;;;;9.60;4.23;;;;;;;7.54;66.67;95992.09;5056955;28;20223;-69
2021/04/10 01:19:35;;;;;;;7.77;3.67;;;;;;;7.46;66.43;95993.91;5057833;28;20206;-71
2021/04/10 01:22:08;;;;;;;9.23;3.50;;;;;;;7.44;66.54;96004.53;5057940;28;20200;-70
2021/04/10 01:24:49;;;;;;;8.60;3.87;;;;;;;7.39;66.58;95996.34;5057879;28;20235;-73
2021/04/10 01:27:40;;;;;;;6.67;3.50;;;;;;;7.49;66.28;95996.19;5056478;28;20282;-72
2021/04/10 01:30:10;;;;;;;9.10;3.77;;;;;;;7.51;66.37;95996.84;5057680;28;20204;-69
2021/04/10 01:32:40;;;;;;;10.50;3.80;;;;;;;7.46;65.99;96005.19;5056516;28;20702;-70
2021/04/10 01:35:09;;;;;;;6.43;3.67;;;;;;;7.45;67.09;95995.69;5056558;28;20306;-69
2021/04/10 01:37:40;;;;;;;5.67;3.33;;;;;;;7.55;66.10;95995.53;5057769;28;20212;-69
2021/04/10 01:40:08;;;;;;;6.50;3.37;;;;;;;7.65;65.00;95997.00;5057608;28;20207;-72
2021/04/10 01:42:35;;;;;;;5.53;3.10;;;;;;;7.67;64.45;96002.88;5056898;28;20945;-69
2021/04/10 01:45:04;;;;;;;6.80;3.37;;;;;;;7.72;64.11;95994.53;5056624;28;20794;-70
2021/04/10 01:47:34;;;;;;;8.20;3.43;;;;;;;7.68;65.27;95995.88;5058187;28;20207;-71
2021/04/10 01:50:01;;;;;;;8.00;3.30;;;;;;;7.63;64.51;95998.97;5057372;28;20208;-72
2021/04/10 01:52:28;;;;;;;5.70;3.10;;;;;;;7.62;65.69;96004.38;5057248;28;20204;-69
2021/04/10 01:54:56;;;;;;;6.53;2.77;;;;;;;7.68;63.78;96001.91;5056769;28;20224;-71
2021/04/10 01:57:22;;;;;;;9.03;3.13;;;;;;;7.70;65.00;96002.59;5055855;28;20204;-69
2021/04/10 01:59:50;;;;;;;9.90;3.10;;;;;;;7.71;65.50;96006.81;5056824;28;20741;-70
2021/04/10 02:02:17;;;;;;;7.40;3.30;;;;;;;7.70;64.54;96015.69;5057598;28;20246;-68
2021/04/10 02:04:47;;;;;;;5.40;3.40;;;;;;;7.62;67.74;96009.63;5056421;28;20196;-71
2021/04/10 02:07:14;;;;;;;9.53;3.83;;;;;;;7.35;70.69;96004.72;5054193;28;20212;-70
2021/04/10 02:09:43;;;;;;;6.53;4.00;;;;;;;7.33;72.76;96006.66;5057191;28;20200;-69
2021/04/10 02:12:09;;;;;;;8.27;4.00;;;;;;;7.32;72.62;96011.09;5057314;28;20216;-70
2021/04/10 02:14:36;;;;;;;9.70;3.73;;;;;;;7.29;71.73;96010.59;5052710;28;20736;-71
2021/04/10 02:17:03;;;;;;;7.13;4.23;;;;;;;7.26;71.30;96010.13;5055899;28;20220;-69
2021/04/10 02:19:29;;;;;;;7.23;3.97;;;;;;;7.20;70.61;96005.50;5057117;28;20201;-72
2021/04/10 02:21:57;;;;;;;9.43;3.90;;;;;;;6.99;71.82;96013.03;5057115;28;20208;-73
2021/04/10 02:24:23;;;;;;;6.97;3.80;;;;;;;7.11;70.97;96012.53;5057160;28;20196;-69
2021/04/10 02:26:49;;;;;;;6.77;3.90;;;;;;;6.95;72.20;96012.50;5055545;28;20246;-70
2021/04/10 02:29:15;;;;;;;10.13;4.17;;;;;;;7.00;72.53;96007.63;5056060;28;20324;-69
2021/04/10 02:31:46;;;;;;;8.17;3.70;;;;;;;7.06;72.02;96014.81;5056435;28;20196;-71
2021/04/10 02:34:17;;;;;;;5.43;3.60;;;;;;;7.09;71.04;96014.50;5057200;28;20244;-69
2021/04/10 02:36:45;;;;;;;6.63;3.40;;;;;;;7.21;69.59;96010.59;5055511;28;20217;-72
2021/04/10 02:39:12;;;;;;;7.47;3.30;;;;;;;7.29;70.22;96006.19;5056803;28;20802;-70
2021/04/10 02:41:44;;;;;;;5.13;2.70;;;;;;;7.27;68.89;96002.91;5056761;28;20200;-70
2021/04/10 02:44:14;;;;;;;6.47;3.50;;;;;;;7.26;69.30;95999.63;5056613;28;20200;-71
2021/04/10 02:46:46;;;;;;;6.03;2.80;;;;;;;7.26;69.51;96001.25;5055838;28;20232;-69
2021/04/10 02:49:15;;;;;;;7.90;2.90;;;;;;;7.36;67.88;96004.53;5057429;28;20694;-71
2021/04/10 02:51:45;;;;;;;5.70;2.77;;;;;;;7.43;68.73;96000.31;5056488;28;20196;-72
2021/04/10 02:54:17;;;;;;;10.03;3.47;;;;;;;7.40;68.39;95997.19;5056656;28;20231;-69
2021/04/10 02:56:51;;;;;;;5.17;2.90;;;;;;;7.41;68.62;95998.81;5055711;28;20224;-69
2021/04/10 02:59:19;;;;;;;7.47;3.20;;;;;;;7.37;68.10;95995.69;5056087;28;20759;-69
2021/04/10 03:01:46;;;;;;;8.00;3.10;;;;;;;7.41;66.86;95993.56;5055373;28;20208;-68
2021/04/10 03:04:13;;;;;;;6.90;2.90;;;;;;;7.38;66.55;95988.66;5056366;28;20274;-73
2021/04/10 03:06:40;;;;;;;6.30;3.10;;;;;;;7.40;67.80;95989.31;5055912;28;20277;-69
2021/04/10 03:09:07;;;;;;;7.03;3.00;;;;;;;7.46;67.04;95984.22;5056427;28;20918;-69
2021/04/10 03:11:35;;;;;;;7.40;2.63;;;;;;;7.49;65.59;95983.88;5055638;28;21105;-69
2021/04/10 03:14:03;;;;;;;6.50;2.47;;;;;;;7.56;65.43;95979.66;5053745;28;20609;-71
2021/04/10 03:16:30;;;;;;;5.43;3.00;;;;;;;7.68;63.91;95982.75;5054790;28;20240;-70
2021/04/10 03:18:57;;;;;;;4.97;2.50;;;;;;;7.68;64.09;95980.94;5055937;28;20209;-69
2021/04/10 03:21:24;;;;;;;6.10;2.70;;;;;;;7.69;64.24;95982.59;5056344;28;20349;-69
2021/04/10 03:23:50;;;;;;;6.73;2.60;;;;;;;7.63;64.34;95983.22;5056289;28;20200;-71
2021/04/10 03:26:17;;;;;;;8.13;3.10;;;;;;;7.62;63.46;95980.78;5054821;28;20228;-71
2021/04/10 03:28:44;;;;;;;8.70;3.03;;;;;;;7.61;64.04;95985.22;5059106;28;20663;-69
2021/04/10 03:31:12;;;;;;;8.37;3.03;;;;;;;7.66;64.14;95982.91;5059916;28;21086;-70
2021/04/10 03:33:38;;;;;;;4.53;2.27;;;;;;;7.61;64.68;95992.25;5059716;28;20212;-72
2021/04/10 03:36:05;;;;;;;4.83;2.80;;;;;;;7.65;64.98;95998.78;5059379;28;20228;-69
2021/04/10 03:38:33;;;;;;;4.77;2.87;;;;;;;7.53;65.12;96002.75;5059766;28;20204;-71
2021/04/10 03:41:00;;;;;;;4.50;2.53;;;;;;;7.49;65.65;96004.88;5059729;28;20552;-71
2021/04/10 03:43:26;;;;;;;9.47;2.80;;;;;;;7.49;65.16;95998.81;5059330;28;20200;-70
2021/04/10 03:45:53;;;;;;;7.90;3.00;;;;;;;7.51;65.20;96004.69;5059590;28;20216;-70
2021/04/10 03:48:19;;;;;;;8.47;2.60;;;;;;;7.68;64.16;95995.88;5059261;28;20212;-73
2021/04/10 03:50:45;;;;;;;7.57;2.87;;;;;;;7.73;63.45;95994.38;5059438;28;20196;-72
2021/04/10 03:53:10;;;;;;;6.70;3.07;;;;;;;7.73;63.33;95993.56;5059407;28;20215;-72
2021/04/10 03:55:37;;;;;;;5.40;3.00;;;;;;;7.70;63.61;95997.34;5058124;28;20330;-72
2021/04/10 03:58:03;;;;;;;5.83;2.80;;;;;;;7.58;64.55;96000.44;5059601;28;20576;-69
2021/04/10 04:00:29;;;;;;;5.83;2.97;;;;;;;7.56;64.87;96003.25;5059211;28;20201;-70
2021/04/10 04:02:57;;;;;;;5.37;2.93;;;;;;;7.52;64.74;96003.72;5059073;28;20208;-72
2021/04/10 04:05:23;;;;;;;5.00;2.80;;;;;;;7.47;64.93;95991.13;5058629;28;20220;-70
2021/04/10 04:07:50;;;;;;;8.30;2.70;;;;;;;7.47;65.08;95993.75;5059936;28;20221;-68
2021/04/10 04:10:16;;;;;;;6.60;2.87;;;;;;;7.41;65.40;95994.38;5059711;28;20216;-69
2021/04/10 04:12:43;;;;;;;8.03;2.83;;;;;;;7.42;65.34;95990.78;5058986;28;20235;-71
2021/04/10 04:15:09;;;;;;;5.67;2.57;;;;;;;7.38;66.17;95988.66;5055799;28;20309;-71
2021/04/10 04:17:35;;;;;;;6.00;2.90;;;;;;;7.35;66.39;95992.41;5059194;28;20205;-73
2021/04/10 04:20:03;;;;;;;6.80;3.20;;;;;;;7.27;67.20;95989.78;5058776;28;20635;-71
2021/04/10 04:22:29;;;;;;;4.00;2.83;;;;;;;7.19;68.18;95994.19;5059164;28;20204;-74
2021/04/10 04:24:55;;;;;;;9.07;3.10;;;;;;;7.21;67.54;95996.69;5058379;28;20246;-69
2021/04/10 04:27:21;;;;;;;5.67;3.07;;;;;;;7.14;67.72;95999.13;5058116;28;20213;-69
2021/04/10 04:29:47;;;;;;;8.37;3.23;;;;;;;7.13;67.69;96000.09;5058839;28;20224;-72
2021/04/10 04:32:13;;;;;;;5.60;3.00;;;;;;;7.14;67.98;96006.16;5059584;28;20208;-72
2021/04/10 04:34:39;;;;;;;6.97;2.83;;;;;;;7.07;68.23;95999.94;5058760;28;20694;-71
2021/04/10 04:37:07;;;;;;;8.43;3.07;;;;;;;7.05;68.68;95999.25;5058212;28;20228;-70
2021/04/10 04:39:33;;;;;;;9.93;3.47;;;;;;;6.99;68.87;96003.34;5058484;28;20224;-69
2021/04/10 04:42:00;;;;;;;7.03;3.10;;;;;;;6.98;69.39;96011.38;5058991;28;20215;-70
2021/04/10 04:44:26;;;;;;;7.13;3.27;;;;;;;6.93;69.43;96011.03;5058346;28;20211;-72
2021/04/10 04:46:52;;;;;;;9.17;3.40;;;;;;;6.90;69.36;96013.97;5057888;28;20224;-70
2021/04/10 04:49:18;;;;;;;11.17;3.17;;;;;;;6.97;68.66;96015.78;5058656;28;20204;-70
2021/04/10 04:51:44;;;;;;;8.40;2.90;;;;;;;7.03;68.49;96019.56;5058517;28;20312;-72
2021/04/10 04:54:11;;;;;;;11.47;3.60;;;;;;;7.13;68.56;96020.22;5058110;28;20225;-69
2021/04/10 04:56:37;;;;;;;6.17;3.23;;;;;;;7.01;69.61;96021.53;5057843;28;20224;-69
2021/04/10 04:59:03;;;;;;;9.43;3.33;;;;;;;7.16;69.34;96028.59;5057883;28;20208;-69
2021/04/10 05:01:29;;;;;;;8.93;3.30;;;;;;;6.97;70.17;96023.63;5055571;28;20265;-72
2021/04/10 05:03:55;;;;;;;9.30;3.37;;;;;;;7.04;71.74;96031.66;5057941;28;20200;-72
2021/04/10 05:06:21;;;;;;;8.17;3.47;;;;;;;7.02;70.61;96033.66;5057699;28;20286;-69
2021/04/10 05:08:47;;;;;;;7.93;3.27;;;;;;;7.08;70.27;96025.16;5058030;28;20732;-69
2021/04/10 05:11:15;;;;;;;10.90;4.33;;;;;;;7.24;69.48;96036.47;5058406;28;20243;-72
2021/04/10 05:13:41;;;;;;;4.93;2.90;;;;;;;7.27;69.74;96034.34;5055515;28;20648;-69
2021/04/10 05:16:07;;;;;;;5.67;2.93;;;;;;;7.38;69.66;96033.19;5056802;28;20228;-70
2021/04/10 05:18:33;;;;;;;6.20;3.43;;;;;;;7.49;69.02;96036.31;5057955;28;20215;-70
2021/04/10 05:20:59;;;;;;;7.67;2.97;;;;;;;7.49;70.35;96038.13;5057838;28;20208;-69
2021/04/10 05:23:25;;;;;;;7.67;3.90;;;;;;;7.57;69.70;96041.56;5057999;28;20736;-72
2021/04/10 05:25:52;;;;;;;10.87;3.83;;;;;;;7.69;69.51;96040.28;5056962;28;20224;-69
2021/04/10 05:28:18;;;;;;;8.53;3.63;;;;;;;7.85;68.61;96040.25;5057668;28;20205;-70
2021/04/10 05:30:45;;;;;;;10.47;4.10;;;;;;;7.95;68.22;96046.16;5057985;28;20201;-74
2021/04/10 05:33:11;;;;;;;10.40;4.00;;;;;;;8.06;68.13;96048.44;5057771;28;20201;-69
2021/04/10 05:35:37;;;;;;;6.63;3.63;;;;;;;8.06;67.92;96049.25;5056250;28;20224;-70
2021/04/10 05:38:04;;;;;;;10.53;3.60;;;;;;;8.12;67.74;96053.00;5058044;28;20211;-72
2021/04/10 05:40:30;;;;;;;5.00;3.40;;;;;;;8.17;68.56;96062.06;5057620;28;20569;-70
2021/04/10 05:42:56;;;;;;;7.70;3.30;;;;;;;8.16;70.38;96059.59;5058063;28;20205;-70
2021/04/10 05:45:23;;;;;;;6.13;2.80;;;;;;;8.18;69.57;96057.63;5056384;28;20216;-71
2021/04/10 05:47:49;;;;;;;9.53;3.70;;;;;;;8.19;69.97;96052.22;5057535;28;20201;-69
2021/04/10 05:50:15;;;;;;;9.33;4.47;;;;;;;8.26;70.02;96057.63;5057700;28;20219;-69
2021/04/10 05:52:41;;;;;;;10.90;3.73;;;;;;;8.36;70.89;96053.00;5056774;28;21227;-71
2021/04/10 05:55:08;;;;;;;17.40;6.50;;;;;;;8.47;69.49;96057.91;5057169;28;20243;-70
2021/04/10 05:57:35;;;;;;;18.53;6.97;;;;;;;8.55;68.82;96062.16;5056891;28;20208;-71
2021/04/10 06:00:01;;;;;;;13.57;5.10;;;;;;;8.77;67.60;96056.16;5055967;28;20674;-72
2021/04/10 06:02:28;;;;;;;9.67;3.80;;;;;;;8.82;67.99;96063.50;5056548;28;20704;-69
2021/04/10 06:04:55;;;;;;;5.97;3.20;;;;;;;8.91;67.72;96065.13;5056501;28;20188;-70
2021/04/10 06:07:21;;;;;;;6.73;2.87;;;;;;;9.05;67.53;96064.41;5056470;28;21111;-69
2021/04/10 06:09:47;;;;;;;5.63;2.50;;;;;;;9.11;67.27;96061.91;5057176;28;20196;-69
2021/04/10 06:12:13;;;;;;;8.83;2.70;;;;;;;9.19;67.20;96064.50;5057137;28;20267;-69
2021/04/10 06:14:39;;;;;;;5.53;2.57;;;;;;;9.34;67.21;96066.22;5054442;28;20212;-69
2021/04/10 06:17:05;;;;;;;7.97;3.10;;;;;;;9.44;66.87;96061.53;5055618;28;20221;-70
2021/04/10 06:19:32;;;;;;;19.97;12.80;;;;;;;9.51;66.86;96065.13;5056943;28;20257;-73
2021/04/10 06:21:58;;;;;;;14.27;5.37;;;;;;;9.53;67.85;96070.19;5056707;28;20208;-71
2021/04/10 06:24:24;;;;;;;5.87;2.40;;;;;;;9.63;66.81;96070.78;5057157;28;20740;-71
2021/04/10 06:26:50;;;;;;;5.60;2.33;;;;;;;9.64;67.01;96073.25;5055452;28;20251;-69
2021/04/10 06:29:16;;;;;;;7.17;2.43;;;;;;;9.85;67.44;96068.97;5057213;28;20208;-73
2021/04/10 06:31:42;;;;;;;7.43;2.37;;;;;;;9.93;68.23;96068.91;5055911;28;20833;-72
2021/04/10 06:34:08;;;;;;;5.83;2.40;;;;;;;9.90;65.96;96074.53;5056688;28;20705;-70
2021/04/10 06:36:35;;;;;;;4.90;2.50;;;;;;;9.80;66.27;96081.84;5054681;28;20495;-71
2021/04/10 06:39:03;;;;;;;6.03;2.70;;;;;;;9.74;67.41;96082.53;5056316;28;20208;-71
2021/04/10 06:41:29;;;;;;;5.43;2.83;;;;;;;9.75;67.35;96081.56;5056573;28;20200;-71
2021/04/10 06:43:57;;;;;;;9.20;2.70;;;;;;;9.77;67.48;96090.06;5056493;28;20212;-70
2021/04/10 06:46:24;;;;;;;6.63;2.37;;;;;;;9.82;68.27;96086.94;5055877;28;20642;-70
2021/04/10 06:48:53;;;;;;;8.43;2.57;;;;;;;9.83;68.04;96089.38;5056000;28;20208;-69
2021/04/10 06:51:21;;;;;;;7.20;3.77;;;;;;;9.82;67.74;96086.94;5056600;28;20204;-70
2021/04/10 06:53:49;;;;;;;7.80;2.97;;;;;;;9.92;67.33;96093.59;5056243;28;20228;-71
2021/04/10 06:56:18;;;;;;;5.80;2.27;;;;;;;9.87;67.51;96095.13;5055392;28;20224;-71
2021/04/10 06:58:55;;;;;;;8.93;2.60;;;;;;;9.93;67.28;96099.69;5055989;28;20196;-74
2021/04/10 07:01:21;;;;;;;5.17;2.40;;;;;;;9.97;67.22;96091.28;5056657;28;20224;-69
2021/04/10 07:03:50;;;;;;;6.40;2.57;;;;;;;10.07;67.36;96091.88;5055961;28;20196;-72
2021/04/10 07:06:16;;;;;;;6.23;2.40;;;;;;;10.15;66.79;96093.59;5056175;28;20609;-70
2021/04/10 07:08:43;;;;;;;7.63;3.00;;;;;;;10.23;66.54;96096.97;5056325;28;20204;-73
2021/04/10 07:11:10;;;;;;;7.63;2.83;;;;;;;10.38;66.46;96095.19;5055855;28;20219;-70
2021/04/10 07:13:36;;;;;;;6.10;2.70;;;;;;;10.47;67.21;96096.75;5052231;28;20208;-69
2021/04/10 07:16:03;;;;;;;6.97;2.60;;;;;;;10.54;66.08;96092.41;5056899;28;20281;-73
2021/04/10 07:18:29;;;;;;;6.97;2.73;;;;;;;10.63;65.97;96099.25;5055824;28;20299;-69
2021/04/10 07:21:13;;;;;;;8.43;2.60;;;;;;;10.75;65.94;96105.69;5054737;28;20219;-73
2021/04/10 07:23:47;;;;;;;6.77;2.83;;;;;;;10.77;66.38;96101.88;5054839;28;20212;-69
2021/04/10 07:26:16;;;;;;;6.30;2.67;;;;;;;10.69;66.82;96093.22;5054635;28;20220;-73
2021/04/10 07:28:42;;;;;;;5.33;2.50;;;;;;;10.58;66.98;96101.59;5055770;28;20738;-73
2021/04/10 07:31:10;;;;;;;7.47;2.87;;;;;;;10.55;67.15;96101.94;5056381;28;20200;-74
2021/04/10 07:33:38;;;;;;;5.67;2.43;;;;;;;10.53;67.67;96103.94;5055400;28;20205;-69
2021/04/10 07:36:06;;;;;;;8.23;2.47;;;;;;;10.54;67.70;96106.41;5054162;28;20718;-73
2021/04/10 07:38:34;;;;;;;7.60;2.60;;;;;;;10.51;67.18;96100.66;5055803;28;20278;-69
2021/04/10 07:41:02;;;;;;;6.37;2.50;;;;;;;10.53;67.87;96103.94;5055411;28;20212;-69
2021/04/10 07:43:30;;;;;;;9.07;2.40;;;;;;;10.57;67.70;96121.84;5055590;28;20200;-70
2021/04/10 07:46:14;;;;;;;5.53;2.20;;;;;;;10.62;67.89;96110.78;5055330;28;20251;-73
2021/04/10 07:48:58;;;;;;;3.47;2.07;;;;;;;10.72;66.88;96111.34;5054987;28;20208;-71
2021/04/10 07:51:23;;;;;;;4.33;2.13;;;;;;;10.74;67.07;96111.94;5055701;28;20211;-70
2021/04/10 07:53:49;;;;;;;9.77;2.63;;;;;;;10.83;67.02;96110.88;5055699;28;20220;-69
2021/04/10 07:56:15;;;;;;;8.87;2.40;;;;;;;10.90;67.32;96114.44;5054757;28;20228;-72
2021/04/10 07:58:42;;;;;;;4.67;2.30;;;;;;;11.01;66.35;96110.31;5055651;28;20273;-73
2021/04/10 08:01:09;;;;;;;5.23;2.47;;;;;;;11.04;66.54;96107.31;5055984;28;20227;-71
2021/04/10 08:03:39;;;;;;;9.27;2.20;;;;;;;11.04;66.16;96115.22;5055592;28;20208;-70
2021/04/10 08:06:16;;;;;;;5.27;2.93;;;;;;;11.10;66.71;96122.41;5054188;28;20232;-69
2021/04/10 08:08:50;;;;;;;9.33;2.90;;;;;;;11.08;66.87;96126.22;5055467;28;20196;-71
2021/04/10 08:11:16;;;;;;;7.47;3.50;;;;;;;11.17;66.78;96123.31;5055324;28;20223;-71
2021/04/10 08:13:54;;;;;;;6.00;2.93;;;;;;;11.22;66.48;96131.50;5053168;28;20240;-73
2021/04/10 08:16:21;;;;;;;8.83;2.60;;;;;;;11.20;65.58;96137.94;5057675;28;20313;-72
2021/04/10 08:18:49;;;;;;;6.60;2.60;;;;;;;11.05;66.36;96147.69;5059989;28;20200;-69
2021/04/10 08:21:17;;;;;;;5.53;2.60;;;;;;;10.95;66.05;96142.69;5059090;28;20205;-69
2021/04/10 08:23:43;;;;;;;9.63;2.80;;;;;;;10.94;66.90;96145.50;5059092;28;20313;-69
2021/04/10 08:26:09;;;;;;;7.27;2.80;;;;;;;10.95;67.37;96145.31;5057463;28;20260;-69
2021/04/10 08:28:36;;;;;;;6.50;2.40;;;;;;;10.97;66.80;96148.59;5059260;28;20257;-70
2021/04/10 08:31:04;;;;;;;8.63;2.47;;;;;;;10.96;66.74;96138.25;5058679;28;20208;-73
2021/04/10 08:33:32;;;;;;;8.90;2.77;;;;;;;10.98;65.89;96139.69;5057745;28;20192;-71
2021/04/10 08:36:00;;;;;;;5.30;2.10;;;;;;;10.98;65.63;96149.41;5058364;28;20240;-70
2021/04/10 08:38:28;;;;;;;7.97;3.83;;;;;;;10.90;66.18;96143.44;5058892;28;20213;-73
2021/04/10 08:40:57;;;;;;;8.87;2.80;;;;;;;10.88;65.91;96148.84;5058195;28;20210;-71
2021/04/10 08:43:25;;;;;;;7.60;2.50;;;;;;;10.91;66.76;96150.31;5058599;28;20200;-69
2021/04/10 08:45:54;;;;;;;6.47;2.33;;;;;;;10.91;66.37;96153.78;5057661;28;20216;-73
2021/04/10 08:48:22;;;;;;;6.67;2.23;;;;;;;10.89;65.65;96160.25;5058667;28;20216;-69
2021/04/10 08:50:51;;;;;;;5.97;2.90;;;;;;;10.87;65.91;96160.41;5059072;28;20207;-69
2021/04/10 08:53:21;;;;;;;10.30;2.07;;;;;;;10.92;66.13;96158.06;5058391;28;20204;-69
2021/04/10 08:55:47;;;;;;;7.77;2.73;;;;;;;10.98;66.20;96158.16;5057137;28;21082;-70
2021/04/10 08:58:19;;;;;;;13.80;2.53;;;;;;;11.00;67.67;96160.63;5058716;28;20208;-73
2021/04/10 09:00:45;;;;;;;6.77;2.60;;;;;;;10.95;68.23;96160.34;5057965;28;20204;-70
2021/04/10 09:03:11;;;;;;;7.17;2.50;;;;;;;11.00;68.00;96171.97;5057829;28;20204;-69
2021/04/10 09:05:47;;;;;;;10.93;2.70;;;;;;;10.88;68.45;96166.50;5057141;28;20227;-69
2021/04/10 09:08:22;;;;;;;8.00;3.20;;;;;;;10.93;70.34;96158.88;5058208;28;20203;-73
2021/04/10 09:10:59;;;;;;;4.17;2.40;;;;;;;10.95;70.77;96155.88;5058166;28;20688;-73
2021/04/10 09:13:38;;;;;;;6.80;2.70;;;;;;;10.92;70.07;96162.50;5054757;28;20281;-73
2021/04/10 09:16:21;;;;;;;6.70;2.70;;;;;;;10.97;70.77;96161.78;5057186;28;20281;-69
2021/04/10 09:18:51;;;;;;;8.77;3.00;;;;;;;10.98;72.22;96165.22;5057179;28;20697;-71
2021/04/10 09:21:23;;;;;;;8.37;2.70;;;;;;;11.04;69.77;96162.69;5057985;28;20270;-71
2021/04/10 09:23:49;;;;;;;9.13;2.83;;;;;;;11.09;71.42;96160.31;5057611;28;20196;-71
2021/04/10 09:26:16;;;;;;;5.90;2.33;;;;;;;11.12;71.83;96159.94;5055706;28;20236;-70
2021/04/10 09:29:16;;;;;;;5.97;2.43;;;;;;;11.27;69.85;96158.13;5056846;28;20209;-72
2021/04/10 09:31:45;;;;;;;5.63;2.60;;;;;;;11.39;70.13;96155.84;5057677;28;20204;-70
2021/04/10 09:34:50;;;;;;;7.00;2.60;;;;;;;11.49;70.43;96161.66;5057319;28;20331;-68
2021/04/10 09:37:57;;;;;;;7.13;2.70;;;;;;;11.63;67.72;96159.88;5057012;28;20220;-74
2021/04/10 09:40:40;;;;;;;8.20;2.87;;;;;;;11.81;67.29;96151.53;5058312;28;20266;-73
2021/04/10 09:43:06;;;;;;;4.40;2.37;;;;;;;11.94;66.15;96154.31;5053197;28;20262;-69
2021/04/10 09:45:34;;;;;;;6.57;3.00;;;;;;;12.09;65.89;96155.06;5056909;28;21060;-73
2021/04/10 09:48:23;;;;;;;7.43;3.03;;;;;;;12.21;65.41;96157.03;5057360;28;20662;-73
2021/04/10 09:51:13;;;;;;;6.60;2.00;;;;;;;12.25;63.69;96153.81;5057551;28;20200;-73
2021/04/10 09:53:40;;;;;;;6.67;2.50;;;;;;;12.38;62.69;96156.56;5056812;28;21398;-71
2021/04/10 09:56:10;;;;;;;6.33;2.00;;;;;;;12.49;63.99;96155.28;5056361;28;20227;-73
2021/04/10 09:58:41;;;;;;;4.53;2.43;;;;;;;12.69;63.88;96148.31;5056689;28;20196;-71
2021/04/10 10:01:10;;;;;;;5.77;2.57;;;;;;;12.90;61.96;96143.81;5057736;28;20209;-72
2021/04/10 10:03:36;;;;;;;9.30;2.57;;;;;;;12.87;61.99;96146.84;5057210;28;20246;-71
2021/04/10 10:06:03;;;;;;;5.40;2.20;;;;;;;12.82;61.02;96138.66;5055887;28;20868;-71
2021/04/10 10:08:33;;;;;;;9.53;3.00;;;;;;;13.10;61.63;96139.47;5056404;28;20197;-70
2021/04/10 10:11:06;;;;;;;8.67;2.30;;;;;;;13.14;60.15;96132.78;5056885;28;20220;-70
2021/04/10 10:13:35;;;;;;;7.67;2.40;;;;;;;13.22;59.87;96119.41;5053377;28;20478;-70
2021/04/10 10:16:02;;;;;;;10.47;2.33;;;;;;;13.15;60.40;96118.53;5055807;28;20224;-70
2021/04/10 10:18:32;;;;;;;7.53;2.50;;;;;;;13.22;62.29;96114.91;5056659;28;20674;-69
2021/04/10 10:21:00;;;;;;;7.77;2.80;;;;;;;13.50;61.56;96113.84;5056618;28;20215;-70
2021/04/10 10:23:27;;;;;;;6.30;2.85;;;;;;;13.54;60.03;96116.88;5056993;28;20710;-71
2021/04/10 10:25:54;;;;;;;6.43;2.80;;;;;;;13.75;58.89;96122.06;5055865;28;20714;-70
2021/04/10 10:28:20;;;;;;;3.42;2.15;;;;;;;13.97;58.33;96110.31;5056821;28;20259;-69
2021/04/10 10:30:48;;;;;;;6.72;2.38;;;;;;;14.21;58.08;96099.97;5056678;28;20678;-69
2021/04/10 10:33:14;;;;;;;6.38;2.70;;;;;;;14.44;55.40;96087.16;5056419;28;20204;-73
2021/04/10 10:35:50;;;;;;;5.10;2.55;;;;;;;14.90;57.53;96092.19;5055352;28;20224;-73
2021/04/10 10:38:16;;;;;;;3.58;2.40;;;;;;;14.93;57.38;96083.00;5057016;28;20204;-69
2021/04/10 10:40:45;;;;;;;10.85;3.10;;;;;;;15.53;57.84;96081.63;5056640;28;20204;-69
2021/04/10 10:43:12;;;;;;;10.73;3.47;;;;;;;15.83;54.55;96073.94;5056556;28;20208;-70
2021/04/10 10:45:40;;;;;;;6.22;2.83;;;;;;;15.56;52.63;96072.44;5055749;28;20219;-71
2021/04/10 10:48:21;;;;;;;7.05;2.85;;;;;;;15.83;52.74;96071.28;5057585;28;20204;-69
2021/04/10 10:50:48;;;;;;;5.00;2.72;;;;;;;15.31;53.30;96061.72;5056732;28;20204;-70
2021/04/10 10:53:16;;;;;;;8.20;3.50;;;;;;;15.37;53.46;96060.06;5056688;28;20265;-70
2021/04/10 10:56:00;;;;;;;7.78;3.10;;;;;;;15.51;53.85;96057.13;5054972;28;20231;-70
2021/04/10 10:58:31;;;;;;;6.15;3.20;;;;;;;15.57;53.05;96048.31;5056317;28;20277;-72
2021/04/10 11:00:58;;;;;;;5.47;2.20;;;;;;;15.67;53.71;96045.19;5056060;28;20474;-73
2021/04/10 11:03:25;;;;;;;6.68;2.67;;;;;;;15.66;52.23;96043.59;5056382;28;20204;-72
2021/04/10 11:05:52;;;;;;;8.23;3.13;;;;;;;15.56;54.09;96048.53;5054649;28;20247;-72
2021/04/10 11:08:22;;;;;;;7.35;2.92;;;;;;;15.48;53.73;96046.94;5056247;28;20204;-71
2021/04/10 11:10:49;;;;;;;7.55;3.50;;;;;;;15.57;53.64;96042.19;5055003;28;20215;-74
2021/04/10 11:13:17;;;;;;;12.35;4.05;;;;;;;15.69;52.25;96040.50;5055082;28;20213;-71
2021/04/10 11:15:44;;;;;;;7.28;3.03;;;;;;;15.34;52.13;96041.91;5053836;28;20224;-71
2021/04/10 11:18:26;;;;;;;6.88;3.38;;;;;;;15.74;51.61;96038.81;5056264;28;20232;-70
2021/04/10 11:20:52;;;;;;;13.25;3.90;;;;;;;15.98;50.81;96040.72;5056029;28;20809;-72
2021/04/10 11:23:18;;;;;;;6.88;3.30;;;;;;;16.80;50.01;96026.13;5056511;28;20699;-70
2021/04/10 11:25:49;;;;;;;5.78;2.97;;;;;;;16.76;48.48;96027.63;5054772;28;21037;-73
2021/04/10 11:28:29;;;;;;;4.38;2.65;;;;;;;16.53;48.41;96027.44;5055916;28;20386;-70
2021/04/10 11:31:06;;;;;;;9.13;2.72;;;;;;;16.07;49.39;96026.13;5055723;28;20204;-72
2021/04/10 11:33:34;;;;;;;6.13;2.78;;;;;;;15.60;50.73;96020.53;5056193;28;20207;-73
2021/04/10 11:36:00;;;;;;;6.35;2.80;;;;;;;15.66;50.93;96019.69;5054605;28;20255;-72
2021/04/10 11:38:26;;;;;;;6.30;2.85;;;;;;;15.83;50.57;96023.44;5056444;28;20204;-73
2021/04/10 11:40:53;;;;;;;5.50;2.95;;;;;;;15.84;50.70;96021.38;5055867;28;20208;-70
2021/04/10 11:43:19;;;;;;;8.63;3.15;;;;;;;15.80;49.76;96026.53;5056306;28;20209;-70